sensor_id;sensor_type;location;lat;lon;timestamp;temperature;humidity
69626;DHT22;56847;51.984;5.088;2022-11-11T00:00:00;12.50;79.80
69626;DHT22;56847;51.984;5.088;2022-11-11T00:02:48;12.50;79.80
69626;DHT22;56847;51.984;5.088;2022-11-11T00:05:35;12.60;79.80
69626;DHT22;56847;51.984;5.088;2022-11-11T00:08:21;12.60;79.90
69626;DHT22;56847;51.984;5.088;2022-11-11T00:11:10;12.70;80.10
69626;DHT22;56847;51.984;5.088;2022-11-11T00:13:59;12.70;80.20
69626;DHT22;56847;51.984;5.088;2022-11-11T00:16:48;12.80;80.40
69626;DHT22;56847;51.984;5.088;2022-11-11T00:19:52;12.80;80.40
69626;DHT22;56847;51.984;5.088;2022-11-11T00:23:00;12.80;80.30
69626;DHT22;56847;51.984;5.088;2022-11-11T00:26:05;12.90;80.20
69626;DHT22;56847;51.984;5.088;2022-11-11T00:29:11;12.80;80.30
69626;DHT22;56847;51.984;5.088;2022-11-11T00:32:06;12.80;80.30
69626;DHT22;56847;51.984;5.088;2022-11-11T00:35:08;12.80;80.40
69626;DHT22;56847;51.984;5.088;2022-11-11T00:38:17;12.80;80.30
69626;DHT22;56847;51.984;5.088;2022-11-11T00:41:23;12.80;80.30
69626;DHT22;56847;51.984;5.088;2022-11-11T00:44:12;12.80;80.30
69626;DHT22;56847;51.984;5.088;2022-11-11T00:47:07;12.70;80.40
69626;DHT22;56847;51.984;5.088;2022-11-11T00:53:27;12.70;80.30
69626;DHT22;56847;51.984;5.088;2022-11-11T00:56:19;12.70;80.40
69626;DHT22;56847;51.984;5.088;2022-11-11T00:59:07;12.70;80.50
69626;DHT22;56847;51.984;5.088;2022-11-11T01:01:54;12.70;80.60
69626;DHT22;56847;51.984;5.088;2022-11-11T01:04:43;12.80;80.70
69626;DHT22;56847;51.984;5.088;2022-11-11T01:07:31;12.80;80.60
69626;DHT22;56847;51.984;5.088;2022-11-11T01:10:18;12.90;80.50
69626;DHT22;56847;51.984;5.088;2022-11-11T01:13:32;12.90;80.40
69626;DHT22;56847;51.984;5.088;2022-11-11T01:16:25;12.80;80.30
69626;DHT22;56847;51.984;5.088;2022-11-11T01:19:24;12.80;80.30
69626;DHT22;56847;51.984;5.088;2022-11-11T01:22:10;12.80;80.30
69626;DHT22;56847;51.984;5.088;2022-11-11T01:24:56;12.70;80.30
69626;DHT22;56847;51.984;5.088;2022-11-11T01:27:43;12.70;80.30
69626;DHT22;56847;51.984;5.088;2022-11-11T01:30:31;12.70;80.30
69626;DHT22;56847;51.984;5.088;2022-11-11T01:33:18;12.70;80.40
69626;DHT22;56847;51.984;5.088;2022-11-11T01:36:14;12.70;80.50
69626;DHT22;56847;51.984;5.088;2022-11-11T01:39:00;12.70;80.50
69626;DHT22;56847;51.984;5.088;2022-11-11T01:41:46;12.70;80.50
69626;DHT22;56847;51.984;5.088;2022-11-11T01:44:46;12.70;80.60
69626;DHT22;56847;51.984;5.088;2022-11-11T01:47:35;12.70;80.50
69626;DHT22;56847;51.984;5.088;2022-11-11T01:50:59;12.70;80.40
69626;DHT22;56847;51.984;5.088;2022-11-11T01:53:54;12.60;80.40
69626;DHT22;56847;51.984;5.088;2022-11-11T01:56:48;12.60;80.30
69626;DHT22;56847;51.984;5.088;2022-11-11T01:59:44;12.60;80.40
69626;DHT22;56847;51.984;5.088;2022-11-11T02:02:51;12.50;80.40
69626;DHT22;56847;51.984;5.088;2022-11-11T02:05:37;12.50;80.40
69626;DHT22;56847;51.984;5.088;2022-11-11T02:08:35;12.50;80.50
69626;DHT22;56847;51.984;5.088;2022-11-11T02:11:23;12.40;80.50
69626;DHT22;56847;51.984;5.088;2022-11-11T02:14:29;12.40;80.30
69626;DHT22;56847;51.984;5.088;2022-11-11T02:17:20;12.40;80.40
69626;DHT22;56847;51.984;5.088;2022-11-11T02:20:08;12.30;80.40
69626;DHT22;56847;51.984;5.088;2022-11-11T02:23:06;12.30;80.50
69626;DHT22;56847;51.984;5.088;2022-11-11T02:25:55;12.30;80.40
69626;DHT22;56847;51.984;5.088;2022-11-11T02:28:43;12.30;80.60
69626;DHT22;56847;51.984;5.088;2022-11-11T02:31:31;12.20;80.60
69626;DHT22;56847;51.984;5.088;2022-11-11T02:34:19;12.20;80.50
69626;DHT22;56847;51.984;5.088;2022-11-11T02:37:07;12.20;80.60
69626;DHT22;56847;51.984;5.088;2022-11-11T02:39:59;12.20;80.60
69626;DHT22;56847;51.984;5.088;2022-11-11T02:42:49;12.10;80.70
69626;DHT22;56847;51.984;5.088;2022-11-11T02:45:51;12.10;80.80
69626;DHT22;56847;51.984;5.088;2022-11-11T02:48:37;12.10;80.90
69626;DHT22;56847;51.984;5.088;2022-11-11T02:51:23;12.10;80.90
69626;DHT22;56847;51.984;5.088;2022-11-11T02:54:09;12.10;81.00
69626;DHT22;56847;51.984;5.088;2022-11-11T02:56:56;12.10;81.30
69626;DHT22;56847;51.984;5.088;2022-11-11T02:59:56;12.10;81.40
69626;DHT22;56847;51.984;5.088;2022-11-11T03:02:43;12.10;81.30
69626;DHT22;56847;51.984;5.088;2022-11-11T03:05:30;12.10;81.30
69626;DHT22;56847;51.984;5.088;2022-11-11T03:08:16;12.10;81.40
69626;DHT22;56847;51.984;5.088;2022-11-11T03:11:02;12.10;81.30
69626;DHT22;56847;51.984;5.088;2022-11-11T03:13:48;12.10;81.20
69626;DHT22;56847;51.984;5.088;2022-11-11T03:16:35;12.10;81.10
69626;DHT22;56847;51.984;5.088;2022-11-11T03:19:41;12.10;81.00
69626;DHT22;56847;51.984;5.088;2022-11-11T03:22:27;12.10;81.00
69626;DHT22;56847;51.984;5.088;2022-11-11T03:25:37;12.10;80.80
69626;DHT22;56847;51.984;5.088;2022-11-11T03:28:24;12.10;80.90
69626;DHT22;56847;51.984;5.088;2022-11-11T03:31:10;12.00;80.90
69626;DHT22;56847;51.984;5.088;2022-11-11T03:33:59;12.10;80.90
69626;DHT22;56847;51.984;5.088;2022-11-11T03:37:10;12.00;81.00
69626;DHT22;56847;51.984;5.088;2022-11-11T03:40:14;12.00;81.10
69626;DHT22;56847;51.984;5.088;2022-11-11T03:43:03;12.00;81.30
69626;DHT22;56847;51.984;5.088;2022-11-11T03:45:51;12.00;81.30
69626;DHT22;56847;51.984;5.088;2022-11-11T03:48:37;12.00;81.30
69626;DHT22;56847;51.984;5.088;2022-11-11T03:51:23;12.00;81.10
69626;DHT22;56847;51.984;5.088;2022-11-11T03:54:08;12.00;81.10
69626;DHT22;56847;51.984;5.088;2022-11-11T03:56:58;11.90;81.10
69626;DHT22;56847;51.984;5.088;2022-11-11T04:00:03;11.90;81.10
69626;DHT22;56847;51.984;5.088;2022-11-11T04:03:06;11.90;81.10
69626;DHT22;56847;51.984;5.088;2022-11-11T04:06:15;11.90;81.10
69626;DHT22;56847;51.984;5.088;2022-11-11T04:09:25;11.90;81.00
69626;DHT22;56847;51.984;5.088;2022-11-11T04:12:30;11.90;81.10
69626;DHT22;56847;51.984;5.088;2022-11-11T04:15:49;11.80;81.20
69626;DHT22;56847;51.984;5.088;2022-11-11T04:18:51;11.80;81.20
69626;DHT22;56847;51.984;5.088;2022-11-11T04:22:00;11.80;81.20
69626;DHT22;56847;51.984;5.088;2022-11-11T04:24:47;11.80;81.20
69626;DHT22;56847;51.984;5.088;2022-11-11T04:27:51;11.80;81.20
69626;DHT22;56847;51.984;5.088;2022-11-11T04:31:05;11.70;81.10
69626;DHT22;56847;51.984;5.088;2022-11-11T04:33:51;11.70;81.20
69626;DHT22;56847;51.984;5.088;2022-11-11T04:36:39;11.70;81.10
69626;DHT22;56847;51.984;5.088;2022-11-11T04:39:25;11.70;81.10
69626;DHT22;56847;51.984;5.088;2022-11-11T04:42:32;11.70;81.00
69626;DHT22;56847;51.984;5.088;2022-11-11T04:45:20;11.70;81.10
69626;DHT22;56847;51.984;5.088;2022-11-11T04:48:21;11.60;81.00
69626;DHT22;56847;51.984;5.088;2022-11-11T04:51:07;11.60;80.90
69626;DHT22;56847;51.984;5.088;2022-11-11T04:53:52;11.60;81.00
69626;DHT22;56847;51.984;5.088;2022-11-11T04:56:38;11.60;81.10
69626;DHT22;56847;51.984;5.088;2022-11-11T04:59:37;11.60;81.00
69626;DHT22;56847;51.984;5.088;2022-11-11T05:02:22;11.60;81.20
69626;DHT22;56847;51.984;5.088;2022-11-11T05:05:31;11.60;81.10
69626;DHT22;56847;51.984;5.088;2022-11-11T05:08:43;11.50;81.10
69626;DHT22;56847;51.984;5.088;2022-11-11T05:11:48;11.50;81.30
69626;DHT22;56847;51.984;5.088;2022-11-11T05:14:34;11.50;81.20
69626;DHT22;56847;51.984;5.088;2022-11-11T05:17:38;11.50;81.20
69626;DHT22;56847;51.984;5.088;2022-11-11T05:21:00;11.40;81.40
69626;DHT22;56847;51.984;5.088;2022-11-11T05:24:04;11.40;81.40
69626;DHT22;56847;51.984;5.088;2022-11-11T05:27:09;11.40;81.60
69626;DHT22;56847;51.984;5.088;2022-11-11T05:30:05;11.40;81.70
69626;DHT22;56847;51.984;5.088;2022-11-11T05:32:54;11.40;81.50
69626;DHT22;56847;51.984;5.088;2022-11-11T05:35:43;11.40;81.60
69626;DHT22;56847;51.984;5.088;2022-11-11T05:38:33;11.40;81.60
69626;DHT22;56847;51.984;5.088;2022-11-11T05:41:20;11.40;81.50
69626;DHT22;56847;51.984;5.088;2022-11-11T05:44:07;11.30;81.50
69626;DHT22;56847;51.984;5.088;2022-11-11T05:47:28;11.30;81.60
69626;DHT22;56847;51.984;5.088;2022-11-11T05:50:32;11.30;81.70
69626;DHT22;56847;51.984;5.088;2022-11-11T05:53:32;11.30;81.80
69626;DHT22;56847;51.984;5.088;2022-11-11T05:56:18;11.30;81.90
69626;DHT22;56847;51.984;5.088;2022-11-11T05:59:12;11.30;81.90
69626;DHT22;56847;51.984;5.088;2022-11-11T06:01:57;11.30;81.90
69626;DHT22;56847;51.984;5.088;2022-11-11T06:04:43;11.30;82.00
69626;DHT22;56847;51.984;5.088;2022-11-11T06:07:29;11.30;82.00
69626;DHT22;56847;51.984;5.088;2022-11-11T06:10:16;11.20;82.20
69626;DHT22;56847;51.984;5.088;2022-11-11T06:17:34;11.20;82.30
69626;DHT22;56847;51.984;5.088;2022-11-11T09:20:18;12.90;80.30
69626;DHT22;56847;51.984;5.088;2022-11-11T09:23:09;13.00;80.00
69626;DHT22;56847;51.984;5.088;2022-11-11T09:25:54;13.00;80.10
69626;DHT22;56847;51.984;5.088;2022-11-11T09:28:42;13.00;79.80
69626;DHT22;56847;51.984;5.088;2022-11-11T09:31:30;13.10;79.70
69626;DHT22;56847;51.984;5.088;2022-11-11T09:34:31;13.10;79.70
69626;DHT22;56847;51.984;5.088;2022-11-11T09:37:17;13.10;79.60
69626;DHT22;56847;51.984;5.088;2022-11-11T09:40:03;13.10;79.70
69626;DHT22;56847;51.984;5.088;2022-11-11T09:46:03;13.20;79.50
69626;DHT22;56847;51.984;5.088;2022-11-11T09:52:18;13.40;79.50
69626;DHT22;56847;51.984;5.088;2022-11-11T09:55:16;13.50;79.30
69626;DHT22;56847;51.984;5.088;2022-11-11T09:58:24;13.60;78.70
69626;DHT22;56847;51.984;5.088;2022-11-11T10:01:17;13.60;78.80
69626;DHT22;56847;51.984;5.088;2022-11-11T10:07:05;13.70;78.30
69626;DHT22;56847;51.984;5.088;2022-11-11T10:09:59;13.70;78.20
69626;DHT22;56847;51.984;5.088;2022-11-11T10:12:58;13.70;78.20
69626;DHT22;56847;51.984;5.088;2022-11-11T10:16:01;13.70;78.10
69626;DHT22;56847;51.984;5.088;2022-11-11T10:21:59;13.70;78.20
69626;DHT22;56847;51.984;5.088;2022-11-11T10:27:58;13.80;78.10
69626;DHT22;56847;51.984;5.088;2022-11-11T10:30:47;13.80;78.10
69626;DHT22;56847;51.984;5.088;2022-11-11T10:33:45;13.90;77.90
69626;DHT22;56847;51.984;5.088;2022-11-11T10:36:32;13.90;77.90
69626;DHT22;56847;51.984;5.088;2022-11-11T10:39:26;14.00;77.50
69626;DHT22;56847;51.984;5.088;2022-11-11T10:42:16;14.00;77.30
69626;DHT22;56847;51.984;5.088;2022-11-11T10:45:30;14.00;77.40
69626;DHT22;56847;51.984;5.088;2022-11-11T10:48:23;14.10;77.30
69626;DHT22;56847;51.984;5.088;2022-11-11T10:51:11;14.10;77.10
69626;DHT22;56847;51.984;5.088;2022-11-11T10:59:41;14.20;76.90
69626;DHT22;56847;51.984;5.088;2022-11-11T11:06:25;14.30;76.80
69626;DHT22;56847;51.984;5.088;2022-11-11T11:08:54;14.30;76.30
69626;DHT22;56847;51.984;5.088;2022-11-11T11:14:50;14.30;76.10
69626;DHT22;56847;51.984;5.088;2022-11-11T11:17:44;14.30;76.10
69626;DHT22;56847;51.984;5.088;2022-11-11T11:20:32;14.30;75.90
69626;DHT22;56847;51.984;5.088;2022-11-11T11:23:44;14.40;75.90
69626;DHT22;56847;51.984;5.088;2022-11-11T11:27:04;14.40;75.90
69626;DHT22;56847;51.984;5.088;2022-11-11T11:29:48;14.40;75.70
69626;DHT22;56847;51.984;5.088;2022-11-11T11:32:34;14.30;75.30
69626;DHT22;56847;51.984;5.088;2022-11-11T11:35:32;14.30;75.50
69626;DHT22;56847;51.984;5.088;2022-11-11T11:38:18;14.20;75.60
69626;DHT22;56847;51.984;5.088;2022-11-11T11:41:03;14.20;75.60
69626;DHT22;56847;51.984;5.088;2022-11-11T11:43:49;14.30;75.80
69626;DHT22;56847;51.984;5.088;2022-11-11T11:46:40;14.40;76.00
69626;DHT22;56847;51.984;5.088;2022-11-11T11:52:56;14.40;75.40
69626;DHT22;56847;51.984;5.088;2022-11-11T12:02:27;14.40;75.50
69626;DHT22;56847;51.984;5.088;2022-11-11T12:11:46;14.50;75.20
69626;DHT22;56847;51.984;5.088;2022-11-11T12:14:44;14.60;75.30
69626;DHT22;56847;51.984;5.088;2022-11-11T12:23:55;14.70;75.10
69626;DHT22;56847;51.984;5.088;2022-11-11T12:26:50;14.80;75.10
69626;DHT22;56847;51.984;5.088;2022-11-11T12:30:07;14.90;74.80
69626;DHT22;56847;51.984;5.088;2022-11-11T12:36:19;15.00;74.60
69626;DHT22;56847;51.984;5.088;2022-11-11T12:42:55;15.20;74.30
69626;DHT22;56847;51.984;5.088;2022-11-11T12:48:50;15.30;74.10
69626;DHT22;56847;51.984;5.088;2022-11-11T13:16:27;15.80;72.80
69626;DHT22;56847;51.984;5.088;2022-11-11T13:19:22;15.80;72.40
69626;DHT22;56847;51.984;5.088;2022-11-11T13:22:27;15.80;72.40
69626;DHT22;56847;51.984;5.088;2022-11-11T13:25:32;15.80;72.40
69626;DHT22;56847;51.984;5.088;2022-11-11T13:28:32;15.80;72.40
69626;DHT22;56847;51.984;5.088;2022-11-11T13:31:32;15.80;72.40
69626;DHT22;56847;51.984;5.088;2022-11-11T13:34:20;15.80;72.30
69626;DHT22;56847;51.984;5.088;2022-11-11T13:37:16;15.80;72.20
69626;DHT22;56847;51.984;5.088;2022-11-11T13:40:06;15.80;72.00
69626;DHT22;56847;51.984;5.088;2022-11-11T13:42:52;15.80;71.80
69626;DHT22;56847;51.984;5.088;2022-11-11T13:45:40;15.80;71.70
69626;DHT22;56847;51.984;5.088;2022-11-11T13:48:29;15.70;71.90
69626;DHT22;56847;51.984;5.088;2022-11-11T13:54:57;15.70;72.00
69626;DHT22;56847;51.984;5.088;2022-11-11T13:57:21;15.70;72.00
69626;DHT22;56847;51.984;5.088;2022-11-11T14:06:28;15.60;72.10
69626;DHT22;56847;51.984;5.088;2022-11-11T14:09:50;15.60;72.10
69626;DHT22;56847;51.984;5.088;2022-11-11T14:12:38;15.70;72.10
69626;DHT22;56847;51.984;5.088;2022-11-11T14:18:38;16.00;71.40
69626;DHT22;56847;51.984;5.088;2022-11-11T14:24:45;16.20;70.60
69626;DHT22;56847;51.984;5.088;2022-11-11T14:27:32;16.20;70.50
69626;DHT22;56847;51.984;5.088;2022-11-11T14:30:47;16.20;70.20
69626;DHT22;56847;51.984;5.088;2022-11-11T14:36:41;16.20;69.80
69626;DHT22;56847;51.984;5.088;2022-11-11T14:39:42;16.00;69.90
69626;DHT22;56847;51.984;5.088;2022-11-11T14:42:49;15.90;70.30
69626;DHT22;56847;51.984;5.088;2022-11-11T14:48:48;15.50;70.80
69626;DHT22;56847;51.984;5.088;2022-11-11T14:51:40;15.40;71.10
69626;DHT22;56847;51.984;5.088;2022-11-11T14:54:35;15.40;71.40
69626;DHT22;56847;51.984;5.088;2022-11-11T14:57:32;15.30;71.40
69626;DHT22;56847;51.984;5.088;2022-11-11T15:00:19;15.20;71.50
69626;DHT22;56847;51.984;5.088;2022-11-11T15:03:12;15.10;71.70
69626;DHT22;56847;51.984;5.088;2022-11-11T15:06:07;15.00;71.70
69626;DHT22;56847;51.984;5.088;2022-11-11T15:09:00;14.90;71.80
69626;DHT22;56847;51.984;5.088;2022-11-11T15:12:01;14.90;71.90
69626;DHT22;56847;51.984;5.088;2022-11-11T15:21:02;14.70;72.20
69626;DHT22;56847;51.984;5.088;2022-11-11T15:24:05;14.60;72.10
69626;DHT22;56847;51.984;5.088;2022-11-11T15:33:11;14.40;72.40
69626;DHT22;56847;51.984;5.088;2022-11-11T15:39:05;14.30;72.50
69626;DHT22;56847;51.984;5.088;2022-11-11T15:41:54;14.20;72.60
69626;DHT22;56847;51.984;5.088;2022-11-11T15:44:40;14.10;72.50
69626;DHT22;56847;51.984;5.088;2022-11-11T15:47:27;14.10;72.60
69626;DHT22;56847;51.984;5.088;2022-11-11T15:53:12;13.90;72.80
69626;DHT22;56847;51.984;5.088;2022-11-11T15:55:58;13.90;72.70
69626;DHT22;56847;51.984;5.088;2022-11-11T15:58:45;13.80;72.90
69626;DHT22;56847;51.984;5.088;2022-11-11T16:01:31;13.70;72.90
69626;DHT22;56847;51.984;5.088;2022-11-11T16:04:21;13.70;73.10
69626;DHT22;56847;51.984;5.088;2022-11-11T16:07:35;13.60;73.30
69626;DHT22;56847;51.984;5.088;2022-11-11T16:10:33;13.60;73.30
69626;DHT22;56847;51.984;5.088;2022-11-11T16:13:21;13.60;73.40
69626;DHT22;56847;51.984;5.088;2022-11-11T16:19:07;13.50;73.40
69626;DHT22;56847;51.984;5.088;2022-11-11T16:22:05;13.40;73.50
69626;DHT22;56847;51.984;5.088;2022-11-11T16:24:52;13.40;73.60
69626;DHT22;56847;51.984;5.088;2022-11-11T16:27:38;13.30;73.70
69626;DHT22;56847;51.984;5.088;2022-11-11T16:30:33;13.30;73.80
69626;DHT22;56847;51.984;5.088;2022-11-11T16:36:11;13.20;74.00
69626;DHT22;56847;51.984;5.088;2022-11-11T16:39:17;13.20;74.10
69626;DHT22;56847;51.984;5.088;2022-11-11T16:42:15;13.10;74.30
69626;DHT22;56847;51.984;5.088;2022-11-11T16:45:05;13.10;74.20
69626;DHT22;56847;51.984;5.088;2022-11-11T16:48:02;13.00;74.30
69626;DHT22;56847;51.984;5.088;2022-11-11T16:51:01;12.90;74.40
69626;DHT22;56847;51.984;5.088;2022-11-11T16:53:56;12.90;74.50
69626;DHT22;56847;51.984;5.088;2022-11-11T16:56:54;12.90;74.70
69626;DHT22;56847;51.984;5.088;2022-11-11T16:59:45;12.80;74.80
69626;DHT22;56847;51.984;5.088;2022-11-11T17:02:33;12.80;74.80
69626;DHT22;56847;51.984;5.088;2022-11-11T17:05:58;12.70;74.90
69626;DHT22;56847;51.984;5.088;2022-11-11T17:08:44;12.70;74.90
69626;DHT22;56847;51.984;5.088;2022-11-11T17:14:26;12.60;75.00
69626;DHT22;56847;51.984;5.088;2022-11-11T17:17:13;12.60;75.10
69626;DHT22;56847;51.984;5.088;2022-11-11T17:20:07;12.60;75.10
69626;DHT22;56847;51.984;5.088;2022-11-11T17:22:56;12.50;75.20
69626;DHT22;56847;51.984;5.088;2022-11-11T17:25:42;12.50;75.20
69626;DHT22;56847;51.984;5.088;2022-11-11T17:28:33;12.40;75.30
69626;DHT22;56847;51.984;5.088;2022-11-11T17:31:20;12.40;75.30
69626;DHT22;56847;51.984;5.088;2022-11-11T17:34:07;12.40;75.30
69626;DHT22;56847;51.984;5.088;2022-11-11T17:36:56;12.30;75.40
69626;DHT22;56847;51.984;5.088;2022-11-11T17:39:43;12.30;75.40
69626;DHT22;56847;51.984;5.088;2022-11-11T17:42:30;12.30;75.40
69626;DHT22;56847;51.984;5.088;2022-11-11T17:45:16;12.20;75.60
69626;DHT22;56847;51.984;5.088;2022-11-11T17:48:04;12.20;75.60
69626;DHT22;56847;51.984;5.088;2022-11-11T17:50:50;12.20;75.70
69626;DHT22;56847;51.984;5.088;2022-11-11T17:53:36;12.20;75.80
69626;DHT22;56847;51.984;5.088;2022-11-11T17:56:22;12.20;75.80
69626;DHT22;56847;51.984;5.088;2022-11-11T17:59:11;12.10;75.90
69626;DHT22;56847;51.984;5.088;2022-11-11T18:01:57;12.10;76.00
69626;DHT22;56847;51.984;5.088;2022-11-11T18:04:44;12.10;76.10
69626;DHT22;56847;51.984;5.088;2022-11-11T18:07:30;12.10;76.10
69626;DHT22;56847;51.984;5.088;2022-11-11T18:10:16;12.00;76.20
69626;DHT22;56847;51.984;5.088;2022-11-11T18:13:03;12.00;76.20
69626;DHT22;56847;51.984;5.088;2022-11-11T18:15:49;12.00;76.30
69626;DHT22;56847;51.984;5.088;2022-11-11T18:18:35;12.00;76.30
69626;DHT22;56847;51.984;5.088;2022-11-11T18:21:27;11.90;76.30
69626;DHT22;56847;51.984;5.088;2022-11-11T18:24:14;11.90;76.40
69626;DHT22;56847;51.984;5.088;2022-11-11T18:27:00;11.90;76.50
69626;DHT22;56847;51.984;5.088;2022-11-11T18:29:46;11.90;76.50
69626;DHT22;56847;51.984;5.088;2022-11-11T18:32:32;11.90;76.40
69626;DHT22;56847;51.984;5.088;2022-11-11T18:35:20;11.90;76.50
69626;DHT22;56847;51.984;5.088;2022-11-11T18:38:06;11.90;76.50
69626;DHT22;56847;51.984;5.088;2022-11-11T18:41:00;11.80;76.50
69626;DHT22;56847;51.984;5.088;2022-11-11T18:43:48;11.80;76.50
69626;DHT22;56847;51.984;5.088;2022-11-11T18:46:37;11.80;76.60
69626;DHT22;56847;51.984;5.088;2022-11-11T18:49:23;11.80;76.70
69626;DHT22;56847;51.984;5.088;2022-11-11T18:52:11;11.70;76.80
69626;DHT22;56847;51.984;5.088;2022-11-11T18:54:57;11.70;76.80
69626;DHT22;56847;51.984;5.088;2022-11-11T18:57:43;11.70;76.80
69626;DHT22;56847;51.984;5.088;2022-11-11T19:00:31;11.70;76.80
69626;DHT22;56847;51.984;5.088;2022-11-11T19:03:20;11.70;77.00
69626;DHT22;56847;51.984;5.088;2022-11-11T19:06:08;11.70;77.10
69626;DHT22;56847;51.984;5.088;2022-11-11T19:08:58;11.70;77.20
69626;DHT22;56847;51.984;5.088;2022-11-11T19:11:45;11.60;77.20
69626;DHT22;56847;51.984;5.088;2022-11-11T19:14:31;11.60;77.10
69626;DHT22;56847;51.984;5.088;2022-11-11T19:17:19;11.60;77.20
69626;DHT22;56847;51.984;5.088;2022-11-11T19:20:08;11.60;77.20
69626;DHT22;56847;51.984;5.088;2022-11-11T19:22:54;11.70;77.30
69626;DHT22;56847;51.984;5.088;2022-11-11T19:25:41;11.60;77.20
69626;DHT22;56847;51.984;5.088;2022-11-11T19:28:28;11.60;77.30
69626;DHT22;56847;51.984;5.088;2022-11-11T19:31:18;11.60;77.20
69626;DHT22;56847;51.984;5.088;2022-11-11T19:34:11;11.60;77.20
69626;DHT22;56847;51.984;5.088;2022-11-11T19:36:58;11.50;77.30
69626;DHT22;56847;51.984;5.088;2022-11-11T19:39:48;11.50;77.40
69626;DHT22;56847;51.984;5.088;2022-11-11T19:42:40;11.50;77.20
69626;DHT22;56847;51.984;5.088;2022-11-11T19:45:29;11.50;77.30
69626;DHT22;56847;51.984;5.088;2022-11-11T19:48:21;11.50;77.20
69626;DHT22;56847;51.984;5.088;2022-11-11T19:51:11;11.40;77.10
69626;DHT22;56847;51.984;5.088;2022-11-11T19:53:58;11.40;77.20
69626;DHT22;56847;51.984;5.088;2022-11-11T19:56:48;11.40;77.10
69626;DHT22;56847;51.984;5.088;2022-11-11T19:59:42;11.30;77.10
69626;DHT22;56847;51.984;5.088;2022-11-11T20:58:09;10.70;77.40
69626;DHT22;56847;51.984;5.088;2022-11-11T21:01:00;10.70;77.40
69626;DHT22;56847;51.984;5.088;2022-11-11T21:03:46;10.70;77.40
69626;DHT22;56847;51.984;5.088;2022-11-11T21:06:32;10.70;77.50
69626;DHT22;56847;51.984;5.088;2022-11-11T21:09:24;10.70;77.50
69626;DHT22;56847;51.984;5.088;2022-11-11T21:12:09;10.60;77.50
69626;DHT22;56847;51.984;5.088;2022-11-11T21:14:55;10.60;77.50
69626;DHT22;56847;51.984;5.088;2022-11-11T21:17:41;10.60;77.60
69626;DHT22;56847;51.984;5.088;2022-11-11T21:20:27;10.60;77.60
69626;DHT22;56847;51.984;5.088;2022-11-11T21:23:14;10.60;77.50
69626;DHT22;56847;51.984;5.088;2022-11-11T21:26:08;10.60;77.60
69626;DHT22;56847;51.984;5.088;2022-11-11T21:28:54;10.50;77.50
69626;DHT22;56847;51.984;5.088;2022-11-11T21:31:40;10.50;77.50
69626;DHT22;56847;51.984;5.088;2022-11-11T21:34:29;10.50;77.50
69626;DHT22;56847;51.984;5.088;2022-11-11T21:37:15;10.50;77.60
69626;DHT22;56847;51.984;5.088;2022-11-11T21:40:01;10.50;77.60
69626;DHT22;56847;51.984;5.088;2022-11-11T21:42:47;10.40;77.60
69626;DHT22;56847;51.984;5.088;2022-11-11T21:45:36;10.40;77.60
69626;DHT22;56847;51.984;5.088;2022-11-11T21:48:25;10.40;77.60
69626;DHT22;56847;51.984;5.088;2022-11-11T21:51:17;10.40;77.70
69626;DHT22;56847;51.984;5.088;2022-11-11T21:54:12;10.40;77.70
69626;DHT22;56847;51.984;5.088;2022-11-11T21:56:58;10.30;77.70
69626;DHT22;56847;51.984;5.088;2022-11-11T21:59:49;10.30;77.80
69626;DHT22;56847;51.984;5.088;2022-11-11T22:02:35;10.30;77.80
69626;DHT22;56847;51.984;5.088;2022-11-11T22:05:20;10.30;77.70
69626;DHT22;56847;51.984;5.088;2022-11-11T22:08:06;10.30;77.70
69626;DHT22;56847;51.984;5.088;2022-11-11T22:10:51;10.30;77.80
69626;DHT22;56847;51.984;5.088;2022-11-11T22:13:37;10.30;77.80
69626;DHT22;56847;51.984;5.088;2022-11-11T22:16:25;10.20;77.70
69626;DHT22;56847;51.984;5.088;2022-11-11T22:19:13;10.20;77.70
69626;DHT22;56847;51.984;5.088;2022-11-11T22:21:59;10.20;77.70
69626;DHT22;56847;51.984;5.088;2022-11-11T22:24:44;10.20;77.70
69626;DHT22;56847;51.984;5.088;2022-11-11T22:27:30;10.10;77.80
69626;DHT22;56847;51.984;5.088;2022-11-11T22:30:15;10.10;77.70
69626;DHT22;56847;51.984;5.088;2022-11-11T22:33:05;10.10;77.70
69626;DHT22;56847;51.984;5.088;2022-11-11T22:35:50;10.10;77.80
69626;DHT22;56847;51.984;5.088;2022-11-11T22:38:37;10.10;77.70
69626;DHT22;56847;51.984;5.088;2022-11-11T22:41:31;10.00;77.70
69626;DHT22;56847;51.984;5.088;2022-11-11T22:44:16;10.00;77.80
69626;DHT22;56847;51.984;5.088;2022-11-11T22:47:02;10.00;77.90
69626;DHT22;56847;51.984;5.088;2022-11-11T22:49:48;9.90;77.90
69626;DHT22;56847;51.984;5.088;2022-11-11T22:52:37;10.00;77.90
69626;DHT22;56847;51.984;5.088;2022-11-11T22:55:22;9.90;77.90
69626;DHT22;56847;51.984;5.088;2022-11-11T22:58:08;9.90;78.00
69626;DHT22;56847;51.984;5.088;2022-11-11T23:00:54;9.90;78.00
69626;DHT22;56847;51.984;5.088;2022-11-11T23:03:45;9.90;77.90
69626;DHT22;56847;51.984;5.088;2022-11-11T23:06:33;9.90;77.90
69626;DHT22;56847;51.984;5.088;2022-11-11T23:09:24;9.80;78.10
69626;DHT22;56847;51.984;5.088;2022-11-11T23:12:09;9.80;78.10
69626;DHT22;56847;51.984;5.088;2022-11-11T23:14:54;9.80;78.10
69626;DHT22;56847;51.984;5.088;2022-11-11T23:17:40;9.80;78.10
69626;DHT22;56847;51.984;5.088;2022-11-11T23:20:26;9.80;78.10
69626;DHT22;56847;51.984;5.088;2022-11-11T23:23:11;9.80;78.10
69626;DHT22;56847;51.984;5.088;2022-11-11T23:26:08;9.70;78.10
69626;DHT22;56847;51.984;5.088;2022-11-11T23:28:55;9.70;78.10
69626;DHT22;56847;51.984;5.088;2022-11-11T23:31:40;9.70;78.10
69626;DHT22;56847;51.984;5.088;2022-11-11T23:34:26;9.70;78.20
69626;DHT22;56847;51.984;5.088;2022-11-11T23:37:11;9.60;78.20
69626;DHT22;56847;51.984;5.088;2022-11-11T23:39:57;9.70;78.10
69626;DHT22;56847;51.984;5.088;2022-11-11T23:42:42;9.60;78.20
69626;DHT22;56847;51.984;5.088;2022-11-11T23:45:28;9.60;78.30
69626;DHT22;56847;51.984;5.088;2022-11-11T23:48:14;9.60;78.20
69626;DHT22;56847;51.984;5.088;2022-11-11T23:51:00;9.60;78.20
69626;DHT22;56847;51.984;5.088;2022-11-11T23:53:46;9.60;78.30
69626;DHT22;56847;51.984;5.088;2022-11-11T23:56:31;9.60;78.20
69626;DHT22;56847;51.984;5.088;2022-11-11T23:59:19;9.50;78.30
